createdAt,value
2017-10-31T00:00:51.165Z,94.18
2017-10-31T00:01:51.147Z,94.37
2017-10-31T00:02:51.123Z,94.46
2017-10-31T00:03:51.119Z,94.37
2017-10-31T00:04:51.063Z,94.18
2017-10-31T00:05:51.044Z,94.93
2017-10-31T00:06:51.019Z,94.18
2017-10-31T00:07:50.997Z,94.46
2017-10-31T00:08:50.970Z,93.99
2017-10-31T00:09:50.942Z,94.18
2017-10-31T00:10:50.915Z,93.99
2017-10-31T00:11:50.898Z,94.37
2017-10-31T00:12:50.866Z,94.27
2017-10-31T00:13:50.845Z,94.46
2017-10-31T00:14:50.815Z,93.99
2017-10-31T00:15:50.790Z,94.37
2017-10-31T00:16:50.764Z,94.37
2017-10-31T00:17:50.749Z,94.46
2017-10-31T00:18:50.713Z,94.37
2017-10-31T00:19:50.689Z,94.27
2017-10-31T00:20:50.674Z,94.27
2017-10-31T00:21:50.643Z,93.99
2017-10-31T00:22:50.614Z,94.27
2017-10-31T00:23:50.587Z,93.89
2017-10-31T00:24:50.563Z,94.18
2017-10-31T00:25:50.224Z,94.18
2017-10-31T00:26:50.193Z,94.18
2017-10-31T00:27:50.491Z,94.18
2017-10-31T00:28:50.469Z,94.56
2017-10-31T00:29:50.434Z,93.99
2017-10-31T00:30:50.422Z,94.37
2017-10-31T00:31:50.391Z,93.99
2017-10-31T00:32:50.369Z,93.99
2017-10-31T00:33:50.339Z,94.27
2017-10-31T00:34:50.318Z,94.27
2017-10-31T00:35:50.290Z,94.46
2017-10-31T00:36:49.942Z,94.08
2017-10-31T00:37:50.238Z,94.27
2017-10-31T00:38:50.216Z,94.56
2017-10-31T00:39:50.194Z,94.18
2017-10-31T00:40:50.156Z,94.18
2017-10-31T00:41:50.143Z,94.27
2017-10-31T00:42:50.116Z,94.18
2017-10-31T00:43:49.771Z,94.27
2017-10-31T00:44:50.066Z,93.99
2017-10-31T00:45:50.032Z,94.32
2017-10-31T00:46:50.011Z,94.23
2017-10-31T00:47:49.984Z,94.23
2017-10-31T00:48:49.964Z,94.42
2017-10-31T00:49:49.935Z,94.13
2017-10-31T00:50:49.916Z,94.23
2017-10-31T00:51:49.574Z,94.23
2017-10-31T00:52:49.537Z,94.23
2017-10-31T00:53:49.832Z,94.32
2017-10-31T00:54:49.807Z,94.23
2017-10-31T00:55:49.787Z,94.42
2017-10-31T00:56:49.439Z,94.32
2017-10-31T00:57:49.735Z,94.51
2017-10-31T00:58:49.708Z,94.32
2017-10-31T00:59:49.687Z,94.32
2017-10-31T01:00:49.658Z,94.32
2017-10-31T01:01:49.637Z,94.51
2017-10-31T01:02:49.611Z,94.32
2017-10-31T01:03:49.589Z,94.27
2017-10-31T01:04:49.557Z,94.37
2017-10-31T01:05:49.536Z,94.32
2017-10-31T01:06:49.511Z,94.32
2017-10-31T01:07:49.499Z,94.27
2017-10-31T01:08:49.462Z,94.18
2017-10-31T01:09:49.437Z,94.18
2017-10-31T01:10:49.089Z,94.42
2017-10-31T01:11:49.390Z,94.18
2017-10-31T01:12:49.357Z,94.18
2017-10-31T01:13:49.336Z,94.18
2017-10-31T01:14:49.311Z,94.37
2017-10-31T01:15:49.283Z,94.37
2017-10-31T01:16:49.256Z,94.27
2017-10-31T01:17:49.232Z,94.23
2017-10-31T01:18:49.222Z,93.89
2017-10-31T01:19:49.186Z,94.18
2017-10-31T01:20:49.158Z,93.99
2017-10-31T01:21:49.132Z,93.99
2017-10-31T01:22:49.112Z,93.99
2017-10-31T01:23:49.079Z,93.99
2017-10-31T01:24:49.056Z,94.27
2017-10-31T01:25:49.035Z,94.18
2017-10-31T01:26:49.012Z,94.08
2017-10-31T01:27:48.978Z,94.37
2017-10-31T01:28:48.951Z,94.27
2017-10-31T01:29:48.931Z,94.18
2017-10-31T01:30:48.907Z,94.18
2017-10-31T01:31:48.884Z,94.18
2017-10-31T01:32:48.859Z,94.27
2017-10-31T01:33:48.830Z,94.27
2017-10-31T01:34:48.811Z,94.18
2017-10-31T01:35:48.781Z,94.18
2017-10-31T01:36:48.767Z,94.27
2017-10-31T01:37:48.730Z,94.27
2017-10-31T01:38:48.703Z,94.18
2017-10-31T01:39:48.690Z,94.37
2017-10-31T01:40:48.659Z,94.18
2017-10-31T01:41:48.633Z,94.23
2017-10-31T01:42:48.627Z,94.08
2017-10-31T01:43:48.580Z,94.08
2017-10-31T01:44:48.578Z,94.18
2017-10-31T01:45:48.533Z,94.23
2017-10-31T01:46:48.506Z,93.99
2017-10-31T01:47:48.481Z,93.99
2017-10-31T01:48:48.134Z,94.13
2017-10-31T01:49:48.428Z,94.13
2017-10-31T01:50:48.408Z,93.94
2017-10-31T01:51:48.376Z,94.03
2017-10-31T01:52:48.355Z,93.84
2017-10-31T01:53:48.335Z,93.84
2017-10-31T01:54:48.311Z,93.84
2017-10-31T01:55:48.281Z,93.84
2017-10-31T01:56:48.254Z,93.94
2017-10-31T01:57:48.245Z,93.84
2017-10-31T01:58:48.209Z,94.03
2017-10-31T01:59:48.188Z,93.75
2017-10-31T02:00:48.159Z,93.84
2017-10-31T02:01:47.808Z,94.03
2017-10-31T02:02:48.101Z,94.13
2017-10-31T02:03:48.078Z,94.23
2017-10-31T02:04:48.060Z,94.13
2017-10-31T02:05:48.037Z,94.13
2017-10-31T02:06:48.002Z,94.13
2017-10-31T02:07:47.984Z,93.94
2017-10-31T02:08:47.951Z,94.32
2017-10-31T02:09:47.929Z,94.23
2017-10-31T02:10:47.903Z,94.23
2017-10-31T02:11:47.882Z,94.32
2017-10-31T02:12:47.851Z,94.32
2017-10-31T02:13:47.832Z,94.03
2017-10-31T02:14:47.812Z,94.23
2017-10-31T02:15:47.778Z,94.13
2017-10-31T02:16:47.756Z,94.32
2017-10-31T02:17:47.731Z,94.23
2017-10-31T02:18:47.726Z,94.23
2017-10-31T02:19:47.680Z,94.23
2017-10-31T02:20:47.658Z,94.32
2017-10-31T02:21:47.631Z,94.42
2017-10-31T02:22:47.604Z,94.32
2017-10-31T02:23:47.581Z,94.23
2017-10-31T02:24:47.560Z,94.32
2017-10-31T02:25:47.532Z,94.23
2017-10-31T02:26:47.503Z,94.23
2017-10-31T02:27:47.480Z,94.32
2017-10-31T02:28:47.458Z,94.32
2017-10-31T02:29:47.433Z,94.23
2017-10-31T02:30:47.407Z,94.23
2017-10-31T02:31:47.389Z,94.23
2017-10-31T02:32:47.365Z,93.94
2017-10-31T02:33:47.333Z,94.42
2017-10-31T02:34:47.315Z,94.23
2017-10-31T02:35:47.279Z,94.32
2017-10-31T02:36:47.255Z,94.23
2017-10-31T02:37:47.231Z,94.23
2017-10-31T02:38:47.202Z,93.94
2017-10-31T02:39:47.183Z,94.32
2017-10-31T02:40:47.160Z,94.32
2017-10-31T02:41:47.141Z,94.23
2017-10-31T02:42:47.462Z,94.42
2017-10-31T02:43:47.081Z,94.32
2017-10-31T02:44:47.074Z,94.6
2017-10-31T02:45:47.034Z,94.32
2017-10-31T02:46:47.013Z,94.6
2017-10-31T02:47:46.983Z,94.13
2017-10-31T02:48:46.957Z,94.23
2017-10-31T02:49:46.933Z,94.79
2017-10-31T02:50:46.911Z,94.89
2017-10-31T02:51:46.879Z,94.23
2017-10-31T02:52:46.855Z,94.79
2017-10-31T02:53:46.831Z,94.13
2017-10-31T02:54:46.806Z,94.51
2017-10-31T02:55:46.778Z,94.23
2017-10-31T02:56:46.755Z,94.23
2017-10-31T02:57:46.751Z,94.13
2017-10-31T02:58:46.705Z,94.79
2017-10-31T02:59:46.688Z,94.23
2017-10-31T03:00:46.666Z,94.23
2017-10-31T03:01:46.636Z,94.03
2017-10-31T03:02:46.617Z,93.94
2017-10-31T03:03:46.583Z,94.03
2017-10-31T03:04:46.563Z,94.42
2017-10-31T03:05:46.527Z,94.32
2017-10-31T03:06:46.509Z,93.94
2017-10-31T03:07:46.483Z,94.23
2017-10-31T03:08:46.456Z,94.03
2017-10-31T03:09:46.431Z,94.03
2017-10-31T03:10:46.407Z,94.03
2017-10-31T03:11:46.380Z,93.94
2017-10-31T03:12:46.352Z,94.03
2017-10-31T03:13:46.340Z,94.42
2017-10-31T03:14:46.307Z,94.23
2017-10-31T03:15:46.279Z,94.32
2017-10-31T03:16:46.260Z,94.42
2017-10-31T03:17:46.239Z,94.23
2017-10-31T03:18:46.213Z,94.23
2017-10-31T03:19:46.183Z,94.23
2017-10-31T03:20:46.170Z,94.23
2017-10-31T03:21:46.132Z,94.23
2017-10-31T03:22:46.119Z,94.13
2017-10-31T03:23:46.105Z,94.23
2017-10-31T03:24:46.059Z,94.23
2017-10-31T03:25:46.034Z,94.23
2017-10-31T03:26:46.010Z,94.18
2017-10-31T03:27:45.981Z,94.23
2017-10-31T03:28:45.974Z,94.18
2017-10-31T03:29:45.924Z,94.37
2017-10-31T03:30:45.588Z,94.18
2017-10-31T03:31:45.892Z,94.18
2017-10-31T03:32:45.856Z,94.27
2017-10-31T03:33:45.835Z,94.18
2017-10-31T03:34:45.816Z,94.18
2017-10-31T03:35:45.463Z,93.7
2017-10-31T03:36:45.758Z,94.23
2017-10-31T03:37:45.440Z,94.18
2017-10-31T03:38:45.725Z,94.18
2017-10-31T03:39:45.686Z,94.23
2017-10-31T03:40:45.660Z,93.99
2017-10-31T03:41:45.628Z,94.18
2017-10-31T03:42:45.609Z,93.99
2017-10-31T03:43:45.580Z,94.18
2017-10-31T03:44:45.556Z,94.18
2017-10-31T03:45:45.533Z,93.99
2017-10-31T03:46:45.506Z,94.18
2017-10-31T03:47:45.516Z,94.18
2017-10-31T03:48:45.137Z,94.03
2017-10-31T03:49:45.437Z,93.99
2017-10-31T03:50:45.424Z,93.89
2017-10-31T03:51:45.379Z,93.94
2017-10-31T03:52:45.356Z,94.37
2017-10-31T03:53:45.337Z,94.23
2017-10-31T03:54:45.300Z,94.08
2017-10-31T03:55:45.281Z,94.18
2017-10-31T03:56:45.256Z,94.23
2017-10-31T03:57:45.228Z,94.42
2017-10-31T03:58:45.210Z,94.42
2017-10-31T03:59:45.182Z,94.18
2017-10-31T04:00:45.154Z,94.23
2017-10-31T04:01:45.135Z,94.23
2017-10-31T04:02:45.127Z,94.23
2017-10-31T04:03:45.077Z,94.23
2017-10-31T04:04:45.056Z,94.42
2017-10-31T04:05:45.027Z,94.23
2017-10-31T04:06:45.010Z,94.13
2017-10-31T04:07:44.985Z,94.42
2017-10-31T04:08:44.952Z,94.23
2017-10-31T04:09:44.938Z,94.32
2017-10-31T04:10:44.906Z,94.03
2017-10-31T04:11:44.884Z,94.32
2017-10-31T04:12:44.854Z,94.13
2017-10-31T04:13:44.833Z,94.23
2017-10-31T04:14:44.806Z,94.18
2017-10-31T04:15:44.787Z,94.18
2017-10-31T04:16:44.758Z,93.84
2017-10-31T04:17:44.728Z,93.8
2017-10-31T04:18:44.709Z,94.56
2017-10-31T04:19:44.680Z,94.37
2017-10-31T04:20:44.663Z,94.46
2017-10-31T04:21:44.639Z,94.46
2017-10-31T04:22:44.617Z,94.56
2017-10-31T04:23:44.580Z,94.46
2017-10-31T04:24:44.551Z,94.46
2017-10-31T04:25:44.526Z,94.37
2017-10-31T04:26:44.504Z,94.37
2017-10-31T04:27:44.480Z,94.56
2017-10-31T04:28:44.457Z,94.46
2017-10-31T04:29:44.433Z,94.27
2017-10-31T04:30:44.407Z,94.37
2017-10-31T04:31:44.383Z,94.37
2017-10-31T04:32:44.352Z,94.27
2017-10-31T04:33:44.015Z,94.56
2017-10-31T04:34:44.303Z,94.37
2017-10-31T04:35:44.283Z,93.99
2017-10-31T04:36:44.255Z,94.37
2017-10-31T04:37:44.230Z,93.99
2017-10-31T04:38:44.213Z,93.8
2017-10-31T04:39:44.178Z,93.99
2017-10-31T04:40:43.839Z,93.99
2017-10-31T04:41:44.128Z,93.99
2017-10-31T04:42:44.461Z,93.8
2017-10-31T04:43:44.079Z,93.8
2017-10-31T04:44:44.057Z,93.89
2017-10-31T04:45:44.027Z,94.08
2017-10-31T04:46:44.000Z,93.8
2017-10-31T04:47:43.977Z,93.99
2017-10-31T04:48:43.949Z,94.08
2017-10-31T04:49:43.929Z,94.08
2017-10-31T04:50:43.902Z,93.99
2017-10-31T04:51:43.877Z,93.8
2017-10-31T04:52:43.856Z,93.99
2017-10-31T04:53:43.829Z,93.99
2017-10-31T04:54:43.801Z,93.99
2017-10-31T04:55:43.780Z,93.7
2017-10-31T04:56:44.110Z,93.7
2017-10-31T04:57:43.734Z,93.8
2017-10-31T04:58:43.382Z,93.99
2017-10-31T04:59:43.682Z,93.41
2017-10-31T05:00:43.650Z,93.51
2017-10-31T05:01:43.622Z,93.56
2017-10-31T05:02:43.612Z,93.51
2017-10-31T05:03:43.578Z,93.89
2017-10-31T05:04:43.556Z,93.8
2017-10-31T05:05:43.537Z,93.89
2017-10-31T05:06:43.509Z,94.08
2017-10-31T05:07:43.476Z,94.13
2017-10-31T05:08:43.450Z,93.7
2017-10-31T05:09:43.427Z,93.89
2017-10-31T05:10:43.126Z,93.51
2017-10-31T05:11:43.376Z,93.8
2017-10-31T05:12:43.356Z,93.89
2017-10-31T05:13:43.329Z,93.89
2017-10-31T05:14:43.302Z,93.8
2017-10-31T05:15:43.276Z,94.08
2017-10-31T05:16:43.249Z,93.99
2017-10-31T05:17:43.228Z,93.8
2017-10-31T05:18:43.200Z,93.89
2017-10-31T05:19:43.177Z,93.99
2017-10-31T05:20:43.158Z,93.99
2017-10-31T05:21:43.128Z,93.8
2017-10-31T05:22:43.102Z,93.8
2017-10-31T05:23:43.074Z,94.08
2017-10-31T05:24:43.064Z,94.08
2017-10-31T05:25:43.044Z,94.08
2017-10-31T05:26:42.682Z,93.99
2017-10-31T05:27:42.659Z,93.8
2017-10-31T05:28:42.954Z,93.99
2017-10-31T05:29:42.923Z,93.7
2017-10-31T05:30:42.900Z,93.8
2017-10-31T05:31:42.880Z,93.89
2017-10-31T05:32:42.851Z,93.89
2017-10-31T05:33:42.826Z,93.7
2017-10-31T05:34:42.797Z,93.8
2017-10-31T05:35:42.788Z,93.89
2017-10-31T05:36:42.749Z,93.8
2017-10-31T05:37:42.725Z,93.8
2017-10-31T05:38:42.704Z,93.99
2017-10-31T05:39:42.678Z,93.8
2017-10-31T05:40:42.651Z,93.8
2017-10-31T05:41:42.627Z,93.8
2017-10-31T05:42:42.601Z,93.7
2017-10-31T05:43:42.574Z,93.7
2017-10-31T05:44:42.546Z,93.41
2017-10-31T05:45:42.525Z,93.99
2017-10-31T05:46:42.182Z,93.6
2017-10-31T05:47:42.489Z,93.32
2017-10-31T05:48:42.451Z,93.6
2017-10-31T05:49:42.424Z,93.8
2017-10-31T05:50:42.396Z,93.6
2017-10-31T05:51:42.376Z,93.6
2017-10-31T05:52:42.351Z,93.51
2017-10-31T05:53:42.323Z,93.7
2017-10-31T05:54:42.307Z,93.6
2017-10-31T05:55:41.948Z,93.6
2017-10-31T05:56:42.259Z,93.6
2017-10-31T05:57:42.227Z,93.6
2017-10-31T05:58:42.197Z,93.32
2017-10-31T05:59:42.172Z,93.7
2017-10-31T06:00:42.145Z,93.6
2017-10-31T06:01:42.131Z,93.8
2017-10-31T06:02:42.101Z,93.41
2017-10-31T06:03:42.081Z,93.46
2017-10-31T06:04:42.052Z,93.46
2017-10-31T06:05:42.020Z,93.46
2017-10-31T06:06:41.998Z,93.56
2017-10-31T06:07:41.971Z,93.7
2017-10-31T06:08:42.056Z,93.8
2017-10-31T06:09:41.916Z,93.46
2017-10-31T06:10:41.898Z,93.56
2017-10-31T06:11:41.869Z,93.56
2017-10-31T06:12:41.845Z,93.65
2017-10-31T06:13:41.819Z,93.41
2017-10-31T06:14:41.794Z,93.8
2017-10-31T06:15:41.768Z,93.8
2017-10-31T06:16:41.750Z,93.6
2017-10-31T06:17:41.720Z,93.65
2017-10-31T06:18:41.698Z,93.7
2017-10-31T06:19:41.674Z,93.6
2017-10-31T06:20:41.641Z,93.6
2017-10-31T06:21:41.623Z,93.6
2017-10-31T06:22:41.603Z,93.8
2017-10-31T06:23:41.573Z,93.65
2017-10-31T06:24:41.543Z,93.84
2017-10-31T06:25:41.522Z,93.75
2017-10-31T06:26:41.496Z,93.75
2017-10-31T06:27:41.468Z,93.56
2017-10-31T06:28:41.443Z,93.65
2017-10-31T06:29:41.427Z,93.65
2017-10-31T06:30:41.396Z,93.75
2017-10-31T06:31:41.379Z,93.84
2017-10-31T06:32:41.351Z,93.84
2017-10-31T06:33:41.005Z,93.56
2017-10-31T06:34:41.297Z,93.84
2017-10-31T06:35:41.272Z,93.56
2017-10-31T06:36:40.924Z,93.46
2017-10-31T06:37:41.225Z,93.46
2017-10-31T06:38:41.200Z,93.65
2017-10-31T06:39:41.176Z,93.27
2017-10-31T06:40:41.142Z,93.56
2017-10-31T06:41:41.121Z,93.56
2017-10-31T06:42:41.102Z,93.27
2017-10-31T06:43:41.064Z,93.75
2017-10-31T06:44:41.046Z,93.84
2017-10-31T06:45:41.020Z,93.84
2017-10-31T06:46:40.993Z,93.84
2017-10-31T06:47:40.974Z,93.46
2017-10-31T06:48:40.957Z,93.46
2017-10-31T06:49:40.919Z,93.8
2017-10-31T06:50:40.898Z,93.6
2017-10-31T06:51:40.869Z,93.23
2017-10-31T06:52:40.847Z,93.84
2017-10-31T06:53:40.828Z,93.65
2017-10-31T06:54:40.797Z,93.65
2017-10-31T06:55:40.783Z,93.56
2017-10-31T06:56:40.748Z,93.75
2017-10-31T06:57:40.721Z,93.84
2017-10-31T06:58:40.702Z,93.65
2017-10-31T06:59:40.675Z,93.56
2017-10-31T07:00:40.652Z,93.75
2017-10-31T07:01:40.619Z,93.56
2017-10-31T07:02:40.601Z,93.65
2017-10-31T07:03:40.576Z,93.75
2017-10-31T07:04:40.549Z,93.65
2017-10-31T07:05:40.529Z,93.27
2017-10-31T07:06:40.495Z,92.61
2017-10-31T07:07:40.475Z,92.85
2017-10-31T07:08:40.448Z,92.85
2017-10-31T07:09:40.429Z,92.85
2017-10-31T07:10:40.402Z,93.23
2017-10-31T07:11:40.728Z,93.13
2017-10-31T07:12:40.351Z,93.23
2017-10-31T07:13:40.324Z,93.23
2017-10-31T07:14:40.311Z,93.13
2017-10-31T07:15:40.281Z,93.32
2017-10-31T07:16:40.253Z,93.13
2017-10-31T07:17:40.226Z,93.41
2017-10-31T07:18:39.880Z,93.23
2017-10-31T07:19:40.178Z,93.23
2017-10-31T07:20:40.161Z,93.27
2017-10-31T07:21:40.135Z,93.08
2017-10-31T07:22:40.105Z,93.18
2017-10-31T07:23:40.092Z,93.37
2017-10-31T07:24:40.062Z,93.27
2017-10-31T07:25:40.037Z,93.27
2017-10-31T07:26:40.007Z,93.32
2017-10-31T07:27:39.985Z,93.37
2017-10-31T07:28:39.962Z,93.46
2017-10-31T07:29:39.957Z,93.18
2017-10-31T07:30:39.913Z,93.46
2017-10-31T07:31:39.885Z,93.65
2017-10-31T07:32:39.870Z,93.37
2017-10-31T07:33:39.847Z,93.55
2017-10-31T07:34:39.814Z,93.37
2017-10-31T07:35:39.803Z,93.75
2017-10-31T07:36:39.454Z,93.75
2017-10-31T07:37:39.746Z,93.37
2017-10-31T07:38:39.725Z,93.55
2017-10-31T07:39:39.697Z,93.46
2017-10-31T07:40:39.683Z,93.55
2017-10-31T07:41:39.649Z,93.55
2017-10-31T07:42:39.645Z,93.51
2017-10-31T07:43:39.604Z,93.65
2017-10-31T07:44:39.263Z,93.46
2017-10-31T07:45:39.554Z,93.46
2017-10-31T07:46:39.530Z,93.55
2017-10-31T07:47:39.508Z,93.55
2017-10-31T07:48:39.481Z,93.46
2017-10-31T07:49:39.458Z,93.51
2017-10-31T07:50:39.435Z,93.75
2017-10-31T07:51:39.415Z,93.46
2017-10-31T07:52:39.388Z,93.55
2017-10-31T07:53:39.361Z,93.65
2017-10-31T07:54:39.336Z,93.55
2017-10-31T07:55:39.315Z,93.65
2017-10-31T07:56:39.296Z,93.65
2017-10-31T07:57:38.949Z,93.65
2017-10-31T07:58:39.243Z,93.94
2017-10-31T07:59:38.898Z,93.94
2017-10-31T08:00:39.193Z,93.75
2017-10-31T08:01:39.174Z,93.94
2017-10-31T08:02:39.150Z,93.37
2017-10-31T08:03:39.144Z,93.75
2017-10-31T08:04:39.095Z,93.75
2017-10-31T08:05:39.082Z,93.94
2017-10-31T08:06:39.053Z,94.13
2017-10-31T08:07:39.025Z,93.94
2017-10-31T08:08:38.683Z,93.55
2017-10-31T08:09:38.979Z,93.84
2017-10-31T08:10:38.958Z,93.46
2017-10-31T08:11:38.930Z,93.75
2017-10-31T08:12:38.908Z,93.94
2017-10-31T08:13:38.879Z,93.94
2017-10-31T08:14:38.858Z,93.55
2017-10-31T08:15:38.846Z,93.55
2017-10-31T08:16:38.810Z,93.94
2017-10-31T08:17:38.790Z,93.55
2017-10-31T08:18:38.761Z,93.75
2017-10-31T08:19:38.744Z,93.84
2017-10-31T08:20:38.714Z,93.37
2017-10-31T08:21:38.696Z,93.84
2017-10-31T08:22:38.669Z,93.79
2017-10-31T08:23:38.649Z,93.84
2017-10-31T08:24:38.620Z,93.55
2017-10-31T08:25:38.596Z,93.6
2017-10-31T08:26:38.577Z,93.7
2017-10-31T08:27:38.549Z,93.98
2017-10-31T08:28:38.522Z,93.79
2017-10-31T08:29:38.504Z,93.51
2017-10-31T08:30:38.474Z,93.79
2017-10-31T08:31:38.453Z,93.98
2017-10-31T08:32:38.430Z,93.6
2017-10-31T08:33:38.407Z,93.98
2017-10-31T08:34:38.733Z,93.89
2017-10-31T08:35:38.358Z,93.79
2017-10-31T08:36:38.334Z,93.89
2017-10-31T08:37:37.989Z,94.08
2017-10-31T08:38:37.968Z,93.98
2017-10-31T08:39:38.262Z,93.98
2017-10-31T08:40:38.245Z,94.18
2017-10-31T08:41:38.220Z,93.98
2017-10-31T08:42:38.192Z,94.08
2017-10-31T08:43:38.172Z,94.37
2017-10-31T08:44:38.143Z,93.98
2017-10-31T08:45:38.136Z,93.98
2017-10-31T08:46:38.094Z,93.89
2017-10-31T08:47:38.073Z,94.27
2017-10-31T08:48:38.062Z,94.27
2017-10-31T08:49:38.032Z,94.37
2017-10-31T08:50:38.002Z,94.27
2017-10-31T08:51:37.986Z,93.89
2017-10-31T08:52:37.957Z,94.08
2017-10-31T08:53:37.932Z,93.89
2017-10-31T08:54:37.907Z,94.18
2017-10-31T08:55:37.576Z,94.18
2017-10-31T08:56:37.861Z,94.18
2017-10-31T08:57:37.839Z,94.27
2017-10-31T08:58:37.816Z,93.89
2017-10-31T08:59:37.791Z,94.27
2017-10-31T09:00:37.768Z,94.18
2017-10-31T09:01:37.745Z,94.27
2017-10-31T09:02:37.719Z,94.18
2017-10-31T09:03:37.696Z,94.37
2017-10-31T09:04:37.673Z,93.98
2017-10-31T09:05:37.650Z,93.98
2017-10-31T09:06:37.634Z,94.27
2017-10-31T09:07:37.601Z,93.98
2017-10-31T09:08:37.577Z,94.32
2017-10-31T09:09:37.558Z,94.37
2017-10-31T09:10:37.528Z,94.37
2017-10-31T09:11:37.547Z,94.37
2017-10-31T09:12:37.483Z,94.37
2017-10-31T09:13:37.462Z,94.37
2017-10-31T09:14:37.445Z,94.37
2017-10-31T09:15:37.411Z,94.46
2017-10-31T09:16:37.392Z,94.37
2017-10-31T09:17:38.781Z,93.98
2017-10-31T09:18:37.344Z,94.37
2017-10-31T09:19:37.318Z,94.27
2017-10-31T09:20:37.296Z,94.37
2017-10-31T09:21:37.281Z,94.46
2017-10-31T09:22:37.605Z,93.98
2017-10-31T09:23:37.225Z,94.37
2017-10-31T09:24:37.198Z,94.27
2017-10-31T09:25:37.192Z,94.27
2017-10-31T09:26:37.151Z,94.27
2017-10-31T09:27:37.132Z,94.46
2017-10-31T09:28:37.118Z,94.51
2017-10-31T09:29:37.087Z,94.37
2017-10-31T09:30:37.063Z,94.37
2017-10-31T09:31:37.040Z,94.27
2017-10-31T09:32:37.016Z,94.27
2017-10-31T09:33:36.994Z,93.79
2017-10-31T09:34:36.969Z,94.27
2017-10-31T09:35:36.943Z,93.89
2017-10-31T09:36:36.947Z,94.08
2017-10-31T09:37:36.898Z,93.89
2017-10-31T09:38:36.873Z,93.98
2017-10-31T09:39:36.843Z,93.89
2017-10-31T09:40:36.823Z,94.37
2017-10-31T09:41:36.814Z,94.22
2017-10-31T09:42:36.776Z,93.84
2017-10-31T09:43:36.752Z,93.84
2017-10-31T09:44:36.730Z,93.74
2017-10-31T09:45:36.705Z,93.84
2017-10-31T09:46:36.684Z,93.74
2017-10-31T09:47:36.663Z,93.84
2017-10-31T09:48:36.318Z,93.84
2017-10-31T09:49:36.290Z,93.74
2017-10-31T09:50:36.589Z,93.84
2017-10-31T09:51:36.249Z,93.84
2017-10-31T09:52:36.539Z,93.84
2017-10-31T09:53:36.520Z,93.74
2017-10-31T09:54:36.499Z,93.84
2017-10-31T09:55:36.468Z,94.03
2017-10-31T09:56:36.442Z,93.84
2017-10-31T09:57:36.430Z,93.84
2017-10-31T09:58:36.404Z,93.94
2017-10-31T09:59:36.372Z,94.03
2017-10-31T10:00:36.357Z,94.03
2017-10-31T10:01:36.329Z,93.84
2017-10-31T10:02:36.307Z,93.74
2017-10-31T10:03:36.286Z,93.84
2017-10-31T10:04:36.258Z,93.84
2017-10-31T10:05:36.237Z,93.84
2017-10-31T10:06:36.214Z,94.03
2017-10-31T10:07:36.195Z,94.37
2017-10-31T10:08:36.169Z,94.27
2017-10-31T10:09:36.145Z,93.22
2017-10-31T10:10:36.121Z,94.08
2017-10-31T10:11:36.091Z,94.27
2017-10-31T10:12:36.068Z,93.51
2017-10-31T10:13:35.735Z,94.08
2017-10-31T10:14:36.029Z,94.46
2017-10-31T10:15:36.003Z,94.46
2017-10-31T10:16:35.979Z,94.17
2017-10-31T10:17:35.982Z,94.17
2017-10-31T10:18:35.937Z,94.27
2017-10-31T10:19:35.908Z,94.46
2017-10-31T10:20:35.884Z,94.27
2017-10-31T10:21:35.862Z,94.37
2017-10-31T10:22:35.842Z,94.37
2017-10-31T10:23:35.822Z,94.56
2017-10-31T10:24:35.796Z,93.89
2017-10-31T10:25:35.766Z,94.46
2017-10-31T10:26:35.748Z,94.37
2017-10-31T10:27:35.724Z,94.37
2017-10-31T10:28:35.702Z,93.7
2017-10-31T10:29:35.677Z,94.46
2017-10-31T10:30:35.655Z,94.37
2017-10-31T10:31:35.311Z,94.65
2017-10-31T10:32:35.612Z,94.27
2017-10-31T10:33:35.585Z,94.56
2017-10-31T10:34:35.562Z,94.46
2017-10-31T10:35:35.536Z,94.84
2017-10-31T10:36:35.196Z,94.46
2017-10-31T10:37:35.497Z,94.37
2017-10-31T10:38:35.147Z,94.46
2017-10-31T10:39:35.447Z,94.37
2017-10-31T10:40:35.423Z,94.08
2017-10-31T10:41:35.398Z,94.17
2017-10-31T10:42:35.058Z,94.46
2017-10-31T10:43:35.352Z,94.46
2017-10-31T10:44:35.329Z,94.56
2017-10-31T10:45:35.312Z,93.89
2017-10-31T10:46:35.286Z,94.46
2017-10-31T10:47:35.263Z,93.89
2017-10-31T10:48:35.234Z,94.46
2017-10-31T10:49:35.225Z,94.27
2017-10-31T10:50:35.210Z,94.17
2017-10-31T10:51:35.166Z,94.17
2017-10-31T10:52:35.143Z,94.27
2017-10-31T10:53:34.799Z,93.89
2017-10-31T10:54:34.779Z,93.79
2017-10-31T10:55:35.073Z,94.17
2017-10-31T10:56:35.052Z,94.17
2017-10-31T10:57:35.031Z,94.17
2017-10-31T10:58:35.004Z,94.17
2017-10-31T10:59:34.984Z,94.27
2017-10-31T11:00:34.963Z,94.17
2017-10-31T11:01:34.935Z,93.79
2017-10-31T11:02:34.910Z,94.08
2017-10-31T11:03:34.891Z,93.89
2017-10-31T11:04:34.864Z,94.46
2017-10-31T11:05:34.843Z,94.08
2017-10-31T11:06:34.822Z,93.98
2017-10-31T11:07:34.819Z,93.98
2017-10-31T11:08:34.448Z,93.98
2017-10-31T11:09:34.749Z,93.89
2017-10-31T11:10:34.727Z,93.7
2017-10-31T11:11:34.714Z,94.08
2017-10-31T11:12:34.679Z,93.98
2017-10-31T11:13:34.657Z,93.6
2017-10-31T11:14:34.633Z,93.79
2017-10-31T11:15:34.993Z,93.84
2017-10-31T11:16:34.598Z,93.65
2017-10-31T11:17:34.563Z,93.55
2017-10-31T11:18:34.536Z,93.84
2017-10-31T11:19:34.516Z,93.84
2017-10-31T11:20:34.491Z,94.03
2017-10-31T11:21:34.476Z,93.84
2017-10-31T11:22:34.449Z,93.93
2017-10-31T11:23:34.426Z,93.93
2017-10-31T11:24:34.397Z,93.74
2017-10-31T11:25:34.380Z,93.93
2017-10-31T11:26:34.361Z,93.93
2017-10-31T11:27:34.009Z,93.65
2017-10-31T11:28:34.306Z,93.93
2017-10-31T11:29:34.288Z,93.74
2017-10-31T11:30:34.263Z,93.93
2017-10-31T11:31:34.237Z,93.93
2017-10-31T11:32:34.223Z,93.93
2017-10-31T11:33:34.194Z,94.03
2017-10-31T11:34:34.181Z,94.22
2017-10-31T11:35:34.144Z,93.93
2017-10-31T11:36:34.122Z,94.03
2017-10-31T11:37:34.105Z,94.13
2017-10-31T11:38:34.081Z,94.13
2017-10-31T11:39:34.057Z,94.13
2017-10-31T11:40:34.039Z,94.27
2017-10-31T11:41:34.020Z,94.46
2017-10-31T11:42:33.989Z,94.17
2017-10-31T11:43:33.959Z,94.27
2017-10-31T11:44:33.945Z,94.46
2017-10-31T11:45:33.920Z,93.79
2017-10-31T11:46:33.897Z,94.17
2017-10-31T11:47:33.872Z,94.46
2017-10-31T11:48:33.852Z,94.37
2017-10-31T11:49:33.837Z,93.98
2017-10-31T11:50:33.800Z,93.88
2017-10-31T11:51:34.581Z,94.56
2017-10-31T11:52:34.425Z,93.88
2017-10-31T11:53:34.467Z,93.88
2017-10-31T11:54:33.990Z,94.37
2017-10-31T11:55:34.180Z,94.56
2017-10-31T11:56:34.528Z,93.7
2017-10-31T11:57:34.091Z,93.51
2017-10-31T11:58:34.403Z,94.46
2017-10-31T11:59:34.124Z,94.56
2017-10-31T12:00:33.579Z,93.7
2017-10-31T12:01:34.242Z,93.88
2017-10-31T12:02:34.027Z,93.88
2017-10-31T12:03:34.195Z,93.7
2017-10-31T12:04:34.131Z,94.08
2017-10-31T12:05:33.488Z,94.08
2017-10-31T12:06:33.119Z,93.41
2017-10-31T12:07:33.416Z,93.51
2017-10-31T12:08:33.445Z,93.88
2017-10-31T12:09:33.373Z,93.65
2017-10-31T12:10:33.369Z,93.88
2017-10-31T12:11:33.333Z,93.51
2017-10-31T12:12:33.309Z,93.98
2017-10-31T12:13:32.964Z,93.98
2017-10-31T12:14:32.937Z,93.6
2017-10-31T12:15:33.243Z,94.08
2017-10-31T12:16:33.222Z,93.98
2017-10-31T12:17:33.193Z,93.84
2017-10-31T12:18:33.174Z,94.12
2017-10-31T12:19:33.146Z,93.55
2017-10-31T12:20:33.129Z,94.12
2017-10-31T12:21:33.097Z,94.22
2017-10-31T12:22:33.085Z,94.22
2017-10-31T12:23:33.060Z,94.22
2017-10-31T12:24:33.049Z,94.22
2017-10-31T12:25:33.012Z,93.93
2017-10-31T12:26:32.991Z,93.74
2017-10-31T12:27:32.964Z,93.36
2017-10-31T12:28:32.952Z,93.93
2017-10-31T12:29:32.923Z,94.12
2017-10-31T12:30:32.899Z,93.84
2017-10-31T12:31:32.885Z,93.84
2017-10-31T12:32:32.858Z,93.55
2017-10-31T12:33:32.838Z,93.55
2017-10-31T12:34:32.810Z,93.36
2017-10-31T12:35:32.792Z,93.55
2017-10-31T12:36:32.769Z,93.46
2017-10-31T12:37:32.743Z,93.65
2017-10-31T12:38:32.723Z,93.65
2017-10-31T12:39:32.708Z,93.46
2017-10-31T12:40:32.674Z,93.55
2017-10-31T12:41:32.332Z,93.74
2017-10-31T12:42:32.626Z,93.46
2017-10-31T12:43:32.622Z,93.36
2017-10-31T12:44:32.587Z,93.7
2017-10-31T12:45:32.561Z,93.7
2017-10-31T12:46:32.542Z,93.22
2017-10-31T12:47:32.517Z,93.36
2017-10-31T12:48:32.498Z,93.51
2017-10-31T12:49:32.479Z,93.84
2017-10-31T12:50:32.452Z,93.6
2017-10-31T12:51:32.432Z,93.27
2017-10-31T12:52:32.416Z,93.55
2017-10-31T12:53:32.386Z,93.41
2017-10-31T12:54:32.371Z,93.36